createdAt,value
2019-02-04T00:00:40.021Z,0.00
2019-02-04T00:01:39.997Z,0.00
2019-02-04T00:02:39.845Z,0.00
2019-02-04T00:03:40.009Z,0.00
2019-02-04T00:04:39.670Z,0.00
2019-02-04T00:05:39.584Z,0.00
2019-02-04T00:06:39.496Z,0.00
2019-02-04T00:07:39.409Z,0.00
2019-02-04T00:08:39.320Z,0.00
2019-02-04T00:09:39.234Z,0.00
2019-02-04T00:10:39.136Z,0.00
2019-02-04T00:11:39.046Z,0.00
2019-02-04T00:12:38.959Z,0.00
2019-02-04T00:13:38.871Z,0.00
2019-02-04T00:14:38.784Z,0.00
2019-02-04T00:15:38.697Z,0.00
2019-02-04T00:16:40.843Z,0.00
2019-02-04T00:17:38.522Z,0.00
2019-02-04T00:18:38.441Z,0.00
2019-02-04T00:19:38.347Z,0.00
2019-02-04T00:20:38.260Z,0.00
2019-02-04T00:21:38.161Z,0.00
2019-02-04T00:22:38.074Z,0.00
2019-02-04T00:23:38.237Z,0.00
2019-02-04T00:24:37.910Z,0.00
2019-02-04T00:25:37.815Z,0.00
2019-02-04T00:26:37.722Z,0.00
2019-02-04T00:27:37.636Z,0.00
2019-02-04T00:28:37.547Z,0.00
2019-02-04T00:29:37.461Z,0.00
2019-02-04T00:30:37.374Z,0.00
2019-02-04T00:31:37.273Z,0.00
2019-02-04T00:32:37.188Z,0.00
2019-02-04T00:33:37.110Z,0.00
2019-02-04T00:34:37.012Z,0.00
2019-02-04T00:35:36.923Z,0.00
2019-02-04T00:36:36.837Z,0.00
2019-02-04T00:37:36.748Z,0.00
2019-02-04T00:38:36.962Z,0.00
2019-02-04T00:39:36.575Z,0.00
2019-02-04T00:40:36.486Z,0.00
2019-02-04T00:41:36.388Z,0.00
2019-02-04T00:42:36.311Z,0.00
2019-02-04T00:43:36.214Z,0.00
2019-02-04T00:44:36.124Z,0.00
2019-02-04T00:45:36.038Z,0.00
2019-02-04T00:46:35.949Z,0.00
2019-02-04T00:47:35.862Z,0.00
2019-02-04T00:48:36.025Z,0.00
2019-02-04T00:49:35.690Z,0.00
2019-02-04T00:50:35.589Z,0.00
2019-02-04T00:51:35.513Z,0.00
2019-02-04T00:52:35.417Z,0.00
2019-02-04T00:53:35.326Z,0.00
2019-02-04T00:54:35.240Z,0.00
2019-02-04T00:55:35.151Z,0.00
2019-02-04T00:56:35.064Z,0.00
2019-02-04T00:57:34.975Z,0.00
2019-02-04T00:58:35.189Z,0.00
2019-02-04T00:59:34.813Z,0.00
2019-02-04T01:00:34.714Z,0.00
2019-02-04T01:01:34.614Z,0.00
2019-02-04T01:02:34.529Z,0.00
2019-02-04T01:03:34.439Z,0.00
2019-02-04T01:04:34.351Z,0.00
2019-02-04T01:05:34.266Z,0.00
2019-02-04T01:06:34.180Z,0.00
2019-02-04T01:07:34.091Z,0.00
2019-02-04T01:08:34.002Z,0.00
2019-02-04T01:09:33.915Z,0.00
2019-02-04T01:10:33.817Z,0.00
2019-02-04T01:11:33.727Z,0.00
2019-02-04T01:12:33.641Z,0.00
2019-02-04T01:13:33.553Z,0.00
2019-02-04T01:14:33.467Z,0.00
2019-02-04T01:15:33.378Z,0.00
2019-02-04T01:16:33.290Z,0.00
2019-02-04T01:17:33.207Z,0.00
2019-02-04T01:18:33.104Z,0.00
2019-02-04T01:19:33.016Z,0.00
2019-02-04T01:20:32.928Z,0.00
2019-02-04T01:21:32.842Z,0.00
2019-02-04T01:22:32.753Z,0.00
2019-02-04T01:23:32.667Z,0.00
2019-02-04T01:24:32.581Z,0.00
2019-02-04T01:25:32.492Z,0.00
2019-02-04T01:26:32.403Z,0.00
2019-02-04T01:27:32.305Z,0.00
2019-02-04T01:28:32.220Z,0.00
2019-02-04T01:29:32.130Z,0.00
2019-02-04T01:30:32.042Z,0.00
2019-02-04T01:31:31.955Z,0.00
2019-02-04T01:32:31.867Z,0.00
2019-02-04T01:33:31.780Z,0.00
2019-02-04T01:34:31.693Z,0.00
2019-02-04T01:35:31.606Z,0.00
2019-02-04T01:36:31.519Z,0.00
2019-02-04T01:37:31.420Z,0.00
2019-02-04T01:38:31.331Z,0.00
2019-02-04T01:39:31.243Z,0.00
2019-02-04T01:40:31.155Z,0.00
2019-02-04T01:41:33.163Z,0.00
2019-02-04T01:42:30.993Z,0.00
2019-02-04T01:43:30.893Z,0.00
2019-02-04T01:44:30.807Z,0.00
2019-02-04T01:45:30.721Z,0.00
2019-02-04T01:46:30.622Z,0.00
2019-02-04T01:47:30.531Z,0.00
2019-02-04T01:48:30.444Z,0.00
2019-02-04T01:49:30.355Z,0.00
2019-02-04T01:50:30.271Z,0.00
2019-02-04T01:51:30.195Z,0.00
2019-02-04T01:52:30.099Z,0.00
2019-02-04T01:53:30.006Z,0.00
2019-02-04T01:54:29.907Z,0.00
2019-02-04T01:55:29.837Z,0.00
2019-02-04T01:56:29.732Z,0.00
2019-02-04T01:57:29.645Z,0.00
2019-02-04T01:58:29.556Z,0.00
2019-02-04T01:59:29.471Z,0.00
2019-02-04T02:00:29.397Z,0.00
2019-02-04T02:01:29.295Z,0.00
2019-02-04T02:02:29.207Z,0.00
2019-02-04T02:03:29.109Z,0.00
2019-02-04T02:04:29.020Z,0.00
2019-02-04T02:05:28.933Z,0.00
2019-02-04T02:06:28.847Z,0.00
2019-02-04T02:07:28.758Z,0.00
2019-02-04T02:08:28.672Z,0.00
2019-02-04T02:09:28.584Z,0.00
2019-02-04T02:10:28.498Z,0.00
2019-02-04T02:11:28.397Z,0.00
2019-02-04T02:12:28.309Z,0.00
2019-02-04T02:13:28.222Z,0.00
2019-02-04T02:14:28.137Z,0.00
2019-02-04T02:15:28.047Z,0.00
2019-02-04T02:16:27.959Z,0.00
2019-02-04T02:17:27.872Z,0.00
2019-02-04T02:18:27.797Z,0.00
2019-02-04T02:19:27.697Z,0.00
2019-02-04T02:20:27.604Z,0.00
2019-02-04T02:21:27.512Z,0.00
2019-02-04T02:22:27.423Z,0.00
2019-02-04T02:23:27.334Z,0.00
2019-02-04T02:24:27.247Z,0.00
2019-02-04T02:25:27.164Z,0.00
2019-02-04T02:26:27.074Z,0.00
2019-02-04T02:27:26.985Z,0.00
2019-02-04T02:28:26.896Z,0.00
2019-02-04T02:29:26.798Z,0.00
2019-02-04T02:30:26.727Z,0.00
2019-02-04T02:31:26.624Z,0.00
2019-02-04T02:32:26.535Z,0.00
2019-02-04T02:33:26.449Z,0.00
2019-02-04T02:34:26.369Z,0.00
2019-02-04T02:35:26.273Z,0.00
2019-02-04T02:36:26.174Z,0.00
2019-02-04T02:37:26.107Z,0.00
2019-02-04T02:38:26.000Z,0.00
2019-02-04T02:39:25.913Z,0.00
2019-02-04T02:40:25.970Z,0.00
2019-02-04T02:41:25.740Z,0.00
2019-02-04T02:42:25.651Z,0.00
2019-02-04T02:43:25.562Z,0.00
2019-02-04T02:44:25.474Z,0.00
2019-02-04T02:45:25.488Z,0.00
2019-02-04T02:46:25.286Z,0.00
2019-02-04T02:47:25.208Z,0.00
2019-02-04T02:48:25.282Z,0.00
2019-02-04T02:49:25.026Z,0.00
2019-02-04T02:50:24.938Z,0.00
2019-02-04T02:51:24.869Z,0.00
2019-02-04T02:52:24.750Z,0.00
2019-02-04T02:53:24.664Z,0.00
2019-02-04T02:54:24.576Z,0.00
2019-02-04T02:55:24.489Z,0.00
2019-02-04T02:56:24.403Z,0.00
2019-02-04T02:57:24.314Z,0.00
2019-02-04T02:58:24.227Z,0.00
2019-02-04T02:59:24.140Z,0.00
2019-02-04T03:00:24.039Z,0.00
2019-02-04T03:01:23.963Z,0.00
2019-02-04T03:02:23.864Z,0.00
2019-02-04T03:03:23.777Z,0.00
2019-02-04T03:04:23.702Z,0.00
2019-02-04T03:05:23.602Z,0.00
2019-02-04T03:06:23.514Z,0.00
2019-02-04T03:07:23.428Z,0.00
2019-02-04T03:08:23.333Z,0.00
2019-02-04T03:09:23.240Z,0.00
2019-02-04T03:10:23.153Z,0.00
2019-02-04T03:11:23.065Z,0.00
2019-02-04T03:12:22.979Z,0.00
2019-02-04T03:13:22.902Z,0.00
2019-02-04T03:14:22.804Z,0.00
2019-02-04T03:15:22.717Z,0.00
2019-02-04T03:16:22.617Z,0.00
2019-02-04T03:17:22.529Z,0.00
2019-02-04T03:18:22.446Z,0.00
2019-02-04T03:19:22.364Z,0.00
2019-02-04T03:20:22.378Z,0.00
2019-02-04T03:21:22.180Z,0.00
2019-02-04T03:22:22.097Z,0.00
2019-02-04T03:23:22.305Z,0.00
2019-02-04T03:24:21.907Z,0.00
2019-02-04T03:25:21.815Z,0.00
2019-02-04T03:26:21.729Z,0.00
2019-02-04T03:27:21.656Z,0.00
2019-02-04T03:28:21.817Z,0.00
2019-02-04T03:29:21.469Z,0.00
2019-02-04T03:30:21.385Z,0.00
2019-02-04T03:31:21.291Z,0.00
2019-02-04T03:32:21.195Z,0.00
2019-02-04T03:33:21.106Z,0.00
2019-02-04T03:34:21.018Z,0.00
2019-02-04T03:35:20.931Z,0.00
2019-02-04T03:36:20.844Z,0.00
2019-02-04T03:37:20.756Z,0.00
2019-02-04T03:38:20.967Z,0.00
2019-02-04T03:39:20.572Z,0.00
2019-02-04T03:40:20.506Z,0.00
2019-02-04T03:41:20.393Z,0.00
2019-02-04T03:42:20.307Z,0.00
2019-02-04T03:43:20.217Z,0.00
2019-02-04T03:44:20.131Z,0.00
2019-02-04T03:45:20.043Z,0.00
2019-02-04T03:46:19.945Z,0.00
2019-02-04T03:47:19.858Z,0.00
2019-02-04T03:48:19.773Z,0.00
2019-02-04T03:49:19.685Z,0.00
2019-02-04T03:50:19.593Z,0.00
2019-02-04T03:51:19.507Z,0.00
2019-02-04T03:52:19.420Z,0.00
2019-02-04T03:53:19.333Z,0.00
2019-02-04T03:54:19.243Z,0.00
2019-02-04T03:55:19.145Z,0.00
2019-02-04T03:56:19.057Z,0.00
2019-02-04T03:57:18.972Z,0.00
2019-02-04T03:58:18.882Z,0.00
2019-02-04T03:59:18.809Z,0.00
2019-02-04T04:00:18.708Z,0.00
2019-02-04T04:01:18.633Z,0.00
2019-02-04T04:02:18.534Z,0.00
2019-02-04T04:03:18.432Z,0.00
2019-02-04T04:04:18.346Z,0.00
2019-02-04T04:05:18.264Z,0.00
2019-02-04T04:06:18.170Z,0.00
2019-02-04T04:07:18.083Z,0.00
2019-02-04T04:08:18.000Z,0.00
2019-02-04T04:09:17.909Z,0.00
2019-02-04T04:10:17.835Z,0.00
2019-02-04T04:11:17.734Z,0.00
2019-02-04T04:12:17.635Z,0.00
2019-02-04T04:13:17.548Z,0.00
2019-02-04T04:14:17.461Z,0.00
2019-02-04T04:15:17.372Z,0.00
2019-02-04T04:16:17.284Z,0.00
2019-02-04T04:17:17.198Z,0.00
2019-02-04T04:18:17.098Z,0.00
2019-02-04T04:19:17.009Z,0.00
2019-02-04T04:20:16.922Z,0.00
2019-02-04T04:21:16.835Z,0.00
2019-02-04T04:22:16.746Z,0.00
2019-02-04T04:23:16.910Z,0.00
2019-02-04T04:24:16.573Z,0.00
2019-02-04T04:25:16.486Z,0.00
2019-02-04T04:26:16.399Z,0.00
2019-02-04T04:27:16.298Z,0.00
2019-02-04T04:28:16.222Z,0.00
2019-02-04T04:29:16.124Z,0.00
2019-02-04T04:30:16.036Z,0.00
2019-02-04T04:31:15.963Z,0.00
2019-02-04T04:32:15.860Z,0.00
2019-02-04T04:33:15.773Z,0.00
2019-02-04T04:34:15.675Z,0.00
2019-02-04T04:35:15.589Z,0.00
2019-02-04T04:36:15.498Z,0.00
2019-02-04T04:37:15.425Z,0.00
2019-02-04T04:38:15.325Z,0.00
2019-02-04T04:39:15.236Z,0.00
2019-02-04T04:40:15.172Z,0.00
2019-02-04T04:41:15.062Z,0.00
2019-02-04T04:42:14.963Z,0.00
2019-02-04T04:43:14.877Z,0.00
2019-02-04T04:44:14.788Z,0.00
2019-02-04T04:45:14.699Z,0.00
2019-02-04T04:46:14.612Z,0.00
2019-02-04T04:47:14.527Z,0.00
2019-02-04T04:48:14.443Z,0.00
2019-02-04T04:49:14.352Z,0.00
2019-02-04T04:50:14.251Z,0.00
2019-02-04T04:51:14.163Z,0.00
2019-02-04T04:52:14.075Z,0.00
2019-02-04T04:53:13.988Z,0.00
2019-02-04T04:54:13.905Z,0.00
2019-02-04T04:55:13.824Z,0.00
2019-02-04T04:56:13.725Z,0.00
2019-02-04T04:57:13.639Z,0.00
2019-02-04T04:58:13.542Z,0.00
2019-02-04T04:59:13.451Z,0.00
2019-02-04T05:00:13.367Z,0.00
2019-02-04T05:01:13.276Z,0.00
2019-02-04T05:02:13.189Z,0.00
2019-02-04T05:03:13.101Z,0.00
2019-02-04T05:04:13.015Z,0.00
2019-02-04T05:05:12.940Z,0.00
2019-02-04T05:06:12.839Z,0.00
2019-02-04T05:07:12.741Z,0.00
2019-02-04T05:08:12.651Z,0.00
2019-02-04T05:09:12.566Z,0.00
2019-02-04T05:10:12.476Z,0.00
2019-02-04T05:11:12.494Z,0.00
2019-02-04T05:12:12.301Z,0.00
2019-02-04T05:13:12.215Z,0.00
2019-02-04T05:14:12.116Z,0.00
2019-02-04T05:15:12.040Z,0.00
2019-02-04T05:16:12.050Z,0.00
2019-02-04T05:17:11.852Z,0.00
2019-02-04T05:18:12.065Z,0.00
2019-02-04T05:19:11.677Z,0.00
2019-02-04T05:20:11.590Z,0.00
2019-02-04T05:21:11.503Z,0.00
2019-02-04T05:22:11.406Z,0.00
2019-02-04T05:23:11.316Z,0.00
2019-02-04T05:24:11.241Z,0.00
2019-02-04T05:25:11.141Z,0.00
2019-02-04T05:26:11.054Z,0.00
2019-02-04T05:27:10.966Z,0.00
2019-02-04T05:28:10.878Z,0.00
2019-02-04T05:29:10.792Z,0.00
2019-02-04T05:30:10.706Z,0.00
2019-02-04T05:31:10.606Z,0.00
2019-02-04T05:32:10.522Z,0.00
2019-02-04T05:33:10.429Z,0.00
2019-02-04T05:34:10.343Z,0.00
2019-02-04T05:35:10.254Z,0.00
2019-02-04T05:36:10.168Z,0.00
2019-02-04T05:37:10.092Z,0.00
2019-02-04T05:38:10.243Z,0.00
2019-02-04T05:39:09.893Z,0.00
2019-02-04T05:40:09.804Z,0.00
2019-02-04T05:41:09.732Z,0.00
2019-02-04T05:42:09.662Z,0.00
2019-02-04T05:43:09.543Z,0.00
2019-02-04T05:44:09.485Z,0.00
2019-02-04T05:45:09.370Z,0.00
2019-02-04T05:46:09.268Z,0.00
2019-02-04T05:47:09.194Z,0.00
2019-02-04T05:48:09.094Z,0.00
2019-02-04T05:49:09.006Z,0.00
2019-02-04T05:50:08.920Z,0.00
2019-02-04T05:51:08.831Z,0.00
2019-02-04T05:52:08.744Z,0.00
2019-02-04T05:53:08.645Z,0.00
2019-02-04T05:54:08.556Z,0.00
2019-02-04T05:55:08.469Z,0.00
2019-02-04T05:56:08.381Z,0.00
2019-02-04T05:57:08.295Z,0.00
2019-02-04T05:58:08.207Z,0.00
2019-02-04T05:59:08.120Z,0.00
2019-02-04T06:00:08.032Z,0.00
2019-02-04T06:01:07.933Z,0.00
2019-02-04T06:02:09.432Z,0.00
2019-02-04T06:03:07.757Z,0.00
2019-02-04T06:04:07.681Z,0.00
2019-02-04T06:05:07.583Z,0.00
2019-02-04T06:06:07.495Z,0.00
2019-02-04T06:07:07.408Z,0.00
2019-02-04T06:08:07.311Z,0.00
2019-02-04T06:09:07.221Z,0.00
2019-02-04T06:10:07.134Z,0.00
2019-02-04T06:11:07.051Z,0.00
2019-02-04T06:12:06.960Z,0.00
2019-02-04T06:13:06.871Z,4.00
2019-02-04T06:14:06.783Z,4.00
2019-02-04T06:15:06.687Z,4.00
2019-02-04T06:16:06.600Z,4.00
2019-02-04T06:17:06.508Z,4.00
2019-02-04T06:18:06.422Z,8.00
2019-02-04T06:19:06.334Z,4.00
2019-02-04T06:20:06.246Z,4.00
2019-02-04T06:21:06.172Z,8.00
2019-02-04T06:22:06.072Z,8.00
2019-02-04T06:23:06.221Z,8.00
2019-02-04T06:24:05.884Z,12.00
2019-02-04T06:25:05.805Z,12.00
2019-02-04T06:26:05.709Z,16.00
2019-02-04T06:27:05.622Z,16.00
2019-02-04T06:28:05.536Z,24.00
2019-02-04T06:29:05.448Z,24.00
2019-02-04T06:30:05.350Z,28.00
2019-02-04T06:31:05.260Z,36.00
2019-02-04T06:32:05.174Z,40.00
2019-02-04T06:33:05.085Z,44.00
2019-02-04T06:34:05.013Z,48.00
2019-02-04T06:35:04.911Z,56.00
2019-02-04T06:36:04.824Z,60.00
2019-02-04T06:37:04.735Z,68.00
2019-02-04T06:38:04.637Z,76.00
2019-02-04T06:39:04.548Z,84.00
2019-02-04T06:40:04.461Z,96.00
2019-02-04T06:41:04.375Z,100.00
2019-02-04T06:42:04.286Z,112.00
2019-02-04T06:43:04.205Z,124.00
2019-02-04T06:44:04.113Z,136.00
2019-02-04T06:45:04.012Z,152.00
2019-02-04T06:46:03.925Z,164.00
2019-02-04T06:47:03.837Z,176.00
2019-02-04T06:48:03.750Z,192.00
2019-02-04T06:49:11.950Z,208.00
2019-02-04T06:50:03.576Z,220.00
2019-02-04T06:51:03.487Z,240.00
2019-02-04T06:52:03.390Z,252.00
2019-02-04T06:53:03.301Z,272.00
2019-02-04T06:54:03.213Z,284.00
2019-02-04T06:55:03.126Z,312.00
2019-02-04T06:56:03.123Z,328.00
2019-02-04T06:57:02.959Z,336.00
2019-02-04T06:58:03.113Z,356.00
2019-02-04T06:59:02.776Z,376.00
2019-02-04T07:00:02.676Z,396.00
2019-02-04T07:01:02.591Z,416.00
2019-02-04T07:02:02.502Z,440.00
2019-02-04T07:03:02.413Z,456.00
2019-02-04T07:04:02.326Z,472.00
2019-02-04T07:05:02.238Z,492.00
2019-02-04T07:06:02.154Z,512.00
2019-02-04T07:07:02.064Z,532.00
2019-02-04T07:08:01.964Z,544.00
2019-02-04T07:09:01.876Z,564.00
2019-02-04T07:10:01.789Z,588.00
2019-02-04T07:11:01.702Z,604.00
2019-02-04T07:12:01.614Z,628.00
2019-02-04T07:13:01.529Z,648.00
2019-02-04T07:14:01.455Z,672.00
2019-02-04T07:15:01.355Z,700.00
2019-02-04T07:16:01.253Z,732.00
2019-02-04T07:17:01.165Z,772.00
2019-02-04T07:18:01.822Z,800.00
2019-02-04T07:19:00.989Z,848.00
2019-02-04T07:20:00.905Z,908.00
2019-02-04T07:21:00.814Z,996.00
2019-02-04T07:22:00.728Z,1080.00
2019-02-04T07:23:00.640Z,1108.00
2019-02-04T07:24:00.558Z,1060.00
2019-02-04T07:25:00.454Z,1016.00
2019-02-04T07:26:00.368Z,984.00
2019-02-04T07:27:00.279Z,980.00
2019-02-04T07:28:00.191Z,988.00
2019-02-04T07:29:00.106Z,1012.00
2019-02-04T07:30:00.017Z,1016.00
2019-02-04T07:30:59.928Z,1020.00
2019-02-04T07:31:59.841Z,1028.00
2019-02-04T07:32:59.841Z,996.00
2019-02-04T07:33:59.654Z,984.00
2019-02-04T07:34:59.567Z,992.00
2019-02-04T07:35:59.479Z,1008.00
2019-02-04T07:36:59.392Z,1040.00
2019-02-04T07:37:59.305Z,1112.00
2019-02-04T07:38:59.216Z,1144.00
2019-02-04T07:39:59.130Z,1136.00
2019-02-04T07:40:59.031Z,1188.00
2019-02-04T07:41:58.942Z,1248.00
2019-02-04T07:42:58.857Z,1296.00
2019-02-04T07:43:58.767Z,1332.00
2019-02-04T07:44:58.680Z,1340.00
2019-02-04T07:45:58.593Z,1336.00
2019-02-04T07:46:58.506Z,1352.00
2019-02-04T07:47:58.421Z,1396.00
2019-02-04T07:48:58.331Z,1420.00
2019-02-04T07:49:58.232Z,1444.00
2019-02-04T07:50:58.146Z,1456.00
2019-02-04T07:51:58.057Z,1484.00
2019-02-04T07:52:57.974Z,1484.00
2019-02-04T07:53:57.882Z,1512.00
2019-02-04T07:54:57.795Z,1528.00
2019-02-04T07:55:57.710Z,1560.00
2019-02-04T07:56:57.620Z,1588.00
2019-02-04T07:57:58.039Z,1584.00
2019-02-04T07:58:57.445Z,1572.00
2019-02-04T07:59:57.361Z,1584.00
2019-02-04T08:00:57.258Z,1596.00
2019-02-04T08:01:57.171Z,1600.00
2019-02-04T08:02:57.082Z,1600.00
2019-02-04T08:03:56.994Z,1612.00
2019-02-04T08:04:56.909Z,1640.00
2019-02-04T08:05:56.819Z,1668.00
2019-02-04T08:06:56.733Z,1696.00
2019-02-04T08:07:56.644Z,1732.00
2019-02-04T08:08:56.558Z,1800.00
2019-02-04T08:09:56.483Z,1836.00
2019-02-04T08:10:56.386Z,1920.00
2019-02-04T08:11:56.286Z,1952.00
2019-02-04T08:13:01.624Z,2040.00
2019-02-04T08:13:56.108Z,2088.00
2019-02-04T08:14:56.024Z,2212.00
2019-02-04T08:15:55.945Z,2304.00
2019-02-04T08:16:55.846Z,2268.00
2019-02-04T08:17:55.759Z,2296.00
2019-02-04T08:18:55.684Z,2344.00
2019-02-04T08:19:55.584Z,2388.00
2019-02-04T08:20:55.496Z,2344.00
2019-02-04T08:21:55.412Z,2388.00
2019-02-04T08:22:55.325Z,2412.00
2019-02-04T08:23:55.237Z,2512.00
2019-02-04T08:24:55.147Z,2544.00
2019-02-04T08:25:55.054Z,2528.00
2019-02-04T08:26:54.972Z,2564.00
2019-02-04T08:27:54.876Z,2652.00
2019-02-04T08:28:54.796Z,2580.00
2019-02-04T08:29:54.711Z,2528.00
2019-02-04T08:30:54.611Z,2648.00
2019-02-04T08:31:54.557Z,2656.00
2019-02-04T08:32:54.436Z,2556.00
2019-02-04T08:33:54.350Z,2552.00
2019-02-04T08:34:54.267Z,2580.00
2019-02-04T08:35:54.174Z,2600.00
2019-02-04T08:36:54.097Z,2568.00
2019-02-04T08:37:54.151Z,2600.00
2019-02-04T08:38:53.924Z,2556.00
2019-02-04T08:39:53.836Z,2472.00
2019-02-04T08:40:53.748Z,2460.00
2019-02-04T08:41:53.665Z,2536.00
2019-02-04T08:42:53.593Z,2512.00
2019-02-04T08:43:53.486Z,2488.00
2019-02-04T08:44:53.398Z,2608.00
2019-02-04T08:45:53.312Z,2720.00
2019-02-04T08:46:53.225Z,2768.00
2019-02-04T08:47:53.137Z,2632.00
2019-02-04T08:48:53.056Z,2608.00
2019-02-04T08:49:58.297Z,2580.00
2019-02-04T08:50:52.877Z,2576.00
2019-02-04T08:51:52.788Z,2572.00
2019-02-04T08:52:52.699Z,2564.00
2019-02-04T08:53:52.613Z,2572.00
2019-02-04T08:54:52.524Z,2572.00
2019-02-04T08:55:52.437Z,2552.00
2019-02-04T08:56:52.351Z,2648.00
2019-02-04T08:57:52.378Z,2668.00
2019-02-04T08:58:52.188Z,2656.00
2019-02-04T08:59:52.101Z,2680.00
2019-02-04T09:00:52.013Z,2844.00
2019-02-04T09:01:51.925Z,2784.00
2019-02-04T09:02:51.844Z,2752.00
2019-02-04T09:03:51.750Z,2764.00
2019-02-04T09:04:51.664Z,2716.00
2019-02-04T09:05:51.577Z,2804.00
2019-02-04T09:06:51.489Z,2788.00
2019-02-04T09:07:51.402Z,2900.00
2019-02-04T09:08:51.315Z,2996.00
2019-02-04T09:09:51.227Z,3056.00
2019-02-04T09:10:51.151Z,3284.00
2019-02-04T09:11:51.064Z,3376.00
2019-02-04T09:12:50.976Z,3348.00
2019-02-04T09:13:50.889Z,3188.00
2019-02-04T09:14:50.816Z,3376.00
2019-02-04T09:15:50.715Z,3512.00
2019-02-04T09:16:50.627Z,3660.00
2019-02-04T09:17:50.542Z,3676.00
2019-02-04T09:18:50.453Z,3644.00
2019-02-04T09:19:50.377Z,3564.00
2019-02-04T09:20:50.290Z,3428.00
2019-02-04T09:21:50.215Z,3296.00
2019-02-04T09:22:50.115Z,3140.00
2019-02-04T09:23:50.027Z,2996.00
2019-02-04T09:24:49.947Z,2812.00
2019-02-04T09:25:49.865Z,2708.00
2019-02-04T09:26:49.778Z,2664.00
2019-02-04T09:27:49.691Z,2668.00
2019-02-04T09:28:49.637Z,2704.00
2019-02-04T09:29:49.517Z,2692.00
2019-02-04T09:30:49.429Z,2676.00
2019-02-04T09:31:49.354Z,2656.00
2019-02-04T09:32:49.268Z,2616.00
2019-02-04T09:33:49.182Z,2596.00
2019-02-04T09:34:49.093Z,2592.00
2019-02-04T09:35:49.017Z,2600.00
2019-02-04T09:36:48.928Z,2608.00
2019-02-04T09:37:48.843Z,2608.00
2019-02-04T09:38:48.756Z,2616.00
2019-02-04T09:39:48.667Z,2604.00
2019-02-04T09:40:48.584Z,2576.00
2019-02-04T09:41:48.496Z,2564.00
2019-02-04T09:42:48.408Z,2556.00
2019-02-04T09:43:48.334Z,2564.00
2019-02-04T09:44:48.242Z,2544.00
2019-02-04T09:45:48.155Z,2536.00
2019-02-04T09:46:48.102Z,2512.00
2019-02-04T09:47:47.980Z,2492.00
2019-02-04T09:48:47.904Z,2484.00
2019-02-04T09:49:47.806Z,2480.00
2019-02-04T09:50:47.743Z,2508.00
2019-02-04T09:51:47.644Z,2536.00
2019-02-04T09:52:47.556Z,2588.00
2019-02-04T09:53:47.471Z,2640.00
2019-02-04T09:54:47.381Z,2648.00
2019-02-04T09:55:47.297Z,2656.00
2019-02-04T09:56:47.209Z,2680.00
2019-02-04T09:57:47.119Z,2664.00
2019-02-04T09:58:47.047Z,2684.00
2019-02-04T09:59:46.986Z,2696.00
2019-02-04T10:00:46.870Z,2700.00
2019-02-04T10:01:46.797Z,2724.00
2019-02-04T10:02:46.696Z,2728.00
2019-02-04T10:03:46.610Z,2696.00
2019-02-04T10:04:46.523Z,2700.00
2019-02-04T10:05:46.433Z,2704.00
2019-02-04T10:06:46.357Z,2724.00
2019-02-04T10:07:46.271Z,2780.00
2019-02-04T10:08:46.182Z,2804.00
2019-02-04T10:09:46.095Z,2812.00
2019-02-04T10:10:46.009Z,2844.00
2019-02-04T10:11:45.921Z,2856.00
2019-02-04T10:12:45.832Z,2868.00
2019-02-04T10:13:45.746Z,2904.00
2019-02-04T10:14:45.658Z,2948.00
2019-02-04T10:15:45.966Z,2992.00
2019-02-04T10:16:45.496Z,3044.00
2019-02-04T10:17:45.422Z,3072.00
2019-02-04T10:18:45.328Z,3088.00
2019-02-04T10:19:45.237Z,3088.00
2019-02-04T10:20:45.259Z,3088.00
2019-02-04T10:21:45.060Z,3124.00
2019-02-04T10:22:44.983Z,3128.00
2019-02-04T10:23:44.897Z,3224.00
2019-02-04T10:24:44.822Z,3236.00
2019-02-04T10:25:44.748Z,3216.00
2019-02-04T10:26:44.652Z,3288.00
2019-02-04T10:27:44.550Z,3272.00
2019-02-04T10:28:44.459Z,3272.00
2019-02-04T10:29:44.387Z,3300.00
2019-02-04T10:30:44.287Z,3368.00
2019-02-04T10:31:44.232Z,3368.00
2019-02-04T10:32:44.396Z,3352.00
2019-02-04T10:33:44.034Z,3368.00
2019-02-04T10:34:43.977Z,3420.00
2019-02-04T10:35:43.859Z,3416.00
2019-02-04T10:36:43.774Z,3436.00
2019-02-04T10:37:43.723Z,3476.00
2019-02-04T10:38:43.658Z,3476.00
2019-02-04T10:39:43.544Z,3500.00
2019-02-04T10:40:43.435Z,3520.00
2019-02-04T10:41:43.373Z,3528.00
2019-02-04T10:42:43.274Z,3552.00
2019-02-04T10:43:43.251Z,3572.00
2019-02-04T10:44:43.140Z,3584.00
2019-02-04T10:45:43.011Z,3608.00
2019-02-04T10:46:42.931Z,3628.00
2019-02-04T10:47:42.862Z,3652.00
2019-02-04T10:48:42.792Z,3672.00
2019-02-04T10:49:42.662Z,3720.00
2019-02-04T10:50:46.884Z,3804.00
2019-02-04T10:51:42.521Z,3884.00
2019-02-04T10:52:42.412Z,3924.00
2019-02-04T10:53:42.343Z,3912.00
2019-02-04T10:54:42.249Z,3944.00
2019-02-04T10:55:42.183Z,3956.00
2019-02-04T10:56:42.079Z,3960.00
2019-02-04T10:57:42.024Z,3904.00
2019-02-04T10:58:41.912Z,3936.00
2019-02-04T10:59:41.823Z,3984.00
2019-02-04T11:00:41.740Z,4028.00
2019-02-04T11:01:41.779Z,4052.00
2019-02-04T11:02:41.563Z,4088.00
2019-02-04T11:03:41.517Z,4084.00
2019-02-04T11:04:41.387Z,4076.00
2019-02-04T11:05:41.301Z,4104.00
2019-02-04T11:06:41.223Z,4104.00
2019-02-04T11:07:41.234Z,4112.00
2019-02-04T11:08:41.056Z,4020.00
2019-02-04T11:09:41.006Z,3984.00
2019-02-04T11:10:40.923Z,3936.00
2019-02-04T11:11:40.788Z,3924.00
2019-02-04T11:12:40.715Z,4168.00
2019-02-04T11:13:40.756Z,4328.00
2019-02-04T11:14:40.546Z,4136.00
2019-02-04T11:15:40.454Z,3816.00
2019-02-04T11:16:40.365Z,3792.00
2019-02-04T11:17:40.285Z,3848.00
2019-02-04T11:18:40.207Z,3808.00
2019-02-04T11:19:40.168Z,3896.00
2019-02-04T11:20:40.028Z,3832.00
2019-02-04T11:21:39.974Z,3768.00
2019-02-04T11:22:39.910Z,3732.00
2019-02-04T11:23:39.798Z,3712.00
2019-02-04T11:24:39.692Z,3688.00
2019-02-04T11:25:39.638Z,3780.00
2019-02-04T11:26:39.561Z,3700.00
2019-02-04T11:27:39.444Z,3684.00
2019-02-04T11:28:39.474Z,3812.00
2019-02-04T11:29:39.354Z,3768.00
2019-02-04T11:30:39.192Z,3956.00
2019-02-04T11:31:39.124Z,4232.00
2019-02-04T11:32:39.016Z,4328.00
2019-02-04T11:33:38.930Z,4564.00
2019-02-04T11:34:38.853Z,4656.00
2019-02-04T11:35:38.766Z,4764.00
2019-02-04T11:36:38.726Z,4860.00
2019-02-04T11:37:38.639Z,4912.00
2019-02-04T11:38:38.516Z,4928.00
2019-02-04T11:39:38.433Z,4944.00
2019-02-04T11:40:38.365Z,5020.00
2019-02-04T11:41:38.278Z,5080.00
2019-02-04T11:42:38.215Z,5052.00
2019-02-04T11:43:38.130Z,5176.00
2019-02-04T11:44:38.025Z,5160.00
2019-02-04T11:45:37.932Z,5260.00
2019-02-04T11:46:37.842Z,5284.00
2019-02-04T11:47:37.811Z,5288.00
2019-02-04T11:48:37.686Z,5284.00
2019-02-04T11:49:37.605Z,5284.00
2019-02-04T11:50:37.518Z,5264.00
2019-02-04T11:51:37.432Z,5284.00
2019-02-04T11:52:37.344Z,5264.00
2019-02-04T11:53:37.268Z,5264.00
2019-02-04T11:54:37.182Z,5280.00
2019-02-04T11:55:37.106Z,5292.00
2019-02-04T11:56:37.035Z,5280.00
2019-02-04T11:57:36.932Z,5276.00
2019-02-04T11:58:36.862Z,5296.00
2019-02-04T11:59:36.768Z,5216.00
2019-02-04T12:00:36.706Z,5272.00
2019-02-04T12:01:36.607Z,5252.00
2019-02-04T12:02:36.533Z,5256.00
2019-02-04T12:03:36.444Z,5268.00
2019-02-04T12:04:36.369Z,5260.00
2019-02-04T12:05:36.283Z,5228.00
2019-02-04T12:06:36.207Z,5240.00
2019-02-04T12:07:36.222Z,5248.00
2019-02-04T12:08:36.033Z,5232.00
2019-02-04T12:09:35.957Z,5208.00
2019-02-04T12:10:35.870Z,5192.00
2019-02-04T12:11:35.808Z,5168.00
2019-02-04T12:12:35.709Z,5148.00
2019-02-04T12:13:35.633Z,5144.00
2019-02-04T12:14:35.545Z,5120.00
2019-02-04T12:15:35.470Z,5104.00
2019-02-04T12:16:35.384Z,5084.00
2019-02-04T12:17:35.310Z,5056.00
2019-02-04T12:18:35.220Z,5112.00
2019-02-04T12:19:35.147Z,5120.00
2019-02-04T12:20:35.059Z,5092.00
2019-02-04T12:21:34.986Z,5044.00
2019-02-04T12:22:34.908Z,5068.00
2019-02-04T12:23:34.829Z,3800.00
2019-02-04T12:24:34.735Z,4936.00
2019-02-04T12:25:34.659Z,3336.00
2019-02-04T12:26:34.571Z,6248.00
2019-02-04T12:27:34.510Z,6544.00
2019-02-04T12:28:34.416Z,7004.00
2019-02-04T12:29:34.337Z,6304.00
2019-02-04T12:30:34.250Z,5028.00
2019-02-04T12:31:34.172Z,6300.00
2019-02-04T12:32:34.086Z,6520.00
2019-02-04T12:33:33.998Z,7192.00
2019-02-04T12:34:33.922Z,8024.00
2019-02-04T12:35:33.835Z,8628.00
2019-02-04T12:36:33.761Z,8920.00
2019-02-04T12:37:33.673Z,8256.00
2019-02-04T12:38:33.597Z,6680.00
2019-02-04T12:39:33.510Z,5900.00
2019-02-04T12:40:33.436Z,9792.00
2019-02-04T12:41:33.349Z,7140.00
2019-02-04T12:42:33.272Z,6940.00